sensor_id;sensor_type;location;lat;lon;timestamp;P1;durP1;ratioP1;P2;durP2;ratioP2
22778;SDS011;11556;51.194;3.800;2023-04-25T00:02:11;14.32;;;3.17;;
22778;SDS011;11556;51.194;3.800;2023-04-25T00:04:37;15.13;;;3.40;;
22778;SDS011;11556;51.194;3.800;2023-04-25T00:07:03;12.90;;;2.55;;
22778;SDS011;11556;51.194;3.800;2023-04-25T00:09:29;11.05;;;3.10;;
22778;SDS011;11556;51.194;3.800;2023-04-25T00:11:56;14.57;;;3.25;;
22778;SDS011;11556;51.194;3.800;2023-04-25T00:14:22;19.88;;;3.35;;
22778;SDS011;11556;51.194;3.800;2023-04-25T00:16:48;18.17;;;4.07;;
22778;SDS011;11556;51.194;3.800;2023-04-25T00:19:14;14.57;;;3.38;;
22778;SDS011;11556;51.194;3.800;2023-04-25T00:21:39;10.48;;;3.22;;
22778;SDS011;11556;51.194;3.800;2023-04-25T00:24:06;18.40;;;3.92;;
22778;SDS011;11556;51.194;3.800;2023-04-25T00:26:33;16.77;;;3.60;;
22778;SDS011;11556;51.194;3.800;2023-04-25T00:29:00;17.58;;;3.95;;
22778;SDS011;11556;51.194;3.800;2023-04-25T00:31:26;19.20;;;3.63;;
22778;SDS011;11556;51.194;3.800;2023-04-25T00:33:51;22.08;;;3.88;;
22778;SDS011;11556;51.194;3.800;2023-04-25T00:36:18;15.50;;;3.55;;
22778;SDS011;11556;51.194;3.800;2023-04-25T00:38:44;15.38;;;4.13;;
22778;SDS011;11556;51.194;3.800;2023-04-25T00:41:09;15.25;;;3.70;;
22778;SDS011;11556;51.194;3.800;2023-04-25T00:43:36;11.18;;;3.63;;
22778;SDS011;11556;51.194;3.800;2023-04-25T00:46:02;13.55;;;3.70;;
22778;SDS011;11556;51.194;3.800;2023-04-25T00:48:28;13.80;;;3.45;;
22778;SDS011;11556;51.194;3.800;2023-04-25T00:50:55;15.07;;;3.53;;
22778;SDS011;11556;51.194;3.800;2023-04-25T00:53:26;19.88;;;4.40;;
22778;SDS011;11556;51.194;3.800;2023-04-25T00:55:53;14.85;;;3.45;;
22778;SDS011;11556;51.194;3.800;2023-04-25T00:58:20;25.13;;;3.78;;
22778;SDS011;11556;51.194;3.800;2023-04-25T01:00:47;14.13;;;3.20;;
22778;SDS011;11556;51.194;3.800;2023-04-25T01:03:15;13.38;;;3.33;;
22778;SDS011;11556;51.194;3.800;2023-04-25T01:05:42;11.35;;;3.63;;
22778;SDS011;11556;51.194;3.800;2023-04-25T01:08:08;20.58;;;3.97;;
22778;SDS011;11556;51.194;3.800;2023-04-25T01:10:35;12.57;;;3.35;;
22778;SDS011;11556;51.194;3.800;2023-04-25T01:13:01;25.75;;;4.28;;
22778;SDS011;11556;51.194;3.800;2023-04-25T01:15:27;16.80;;;3.72;;
22778;SDS011;11556;51.194;3.800;2023-04-25T01:17:53;14.25;;;3.47;;
22778;SDS011;11556;51.194;3.800;2023-04-25T01:20:20;12.93;;;3.72;;
22778;SDS011;11556;51.194;3.800;2023-04-25T01:22:48;15.35;;;3.17;;
22778;SDS011;11556;51.194;3.800;2023-04-25T01:25:14;18.13;;;3.20;;
22778;SDS011;11556;51.194;3.800;2023-04-25T01:27:40;19.27;;;4.22;;
22778;SDS011;11556;51.194;3.800;2023-04-25T01:30:06;19.73;;;4.22;;
22778;SDS011;11556;51.194;3.800;2023-04-25T01:32:33;20.42;;;4.53;;
22778;SDS011;11556;51.194;3.800;2023-04-25T01:35:07;18.27;;;4.40;;
22778;SDS011;11556;51.194;3.800;2023-04-25T01:37:36;22.27;;;4.30;;
22778;SDS011;11556;51.194;3.800;2023-04-25T01:40:02;16.70;;;4.78;;
22778;SDS011;11556;51.194;3.800;2023-04-25T01:42:29;30.75;;;4.28;;
22778;SDS011;11556;51.194;3.800;2023-04-25T01:44:55;17.35;;;3.65;;
22778;SDS011;11556;51.194;3.800;2023-04-25T01:47:20;14.63;;;3.50;;
22778;SDS011;11556;51.194;3.800;2023-04-25T01:49:46;17.55;;;3.63;;
22778;SDS011;11556;51.194;3.800;2023-04-25T01:52:12;14.40;;;3.70;;
22778;SDS011;11556;51.194;3.800;2023-04-25T01:54:37;15.40;;;4.00;;
22778;SDS011;11556;51.194;3.800;2023-04-25T01:57:03;14.98;;;3.60;;
22778;SDS011;11556;51.194;3.800;2023-04-25T01:59:28;22.40;;;4.43;;
22778;SDS011;11556;51.194;3.800;2023-04-25T02:01:54;19.85;;;3.80;;
22778;SDS011;11556;51.194;3.800;2023-04-25T02:04:20;20.27;;;4.60;;
22778;SDS011;11556;51.194;3.800;2023-04-25T02:06:45;23.75;;;4.22;;
22778;SDS011;11556;51.194;3.800;2023-04-25T02:09:11;18.13;;;3.78;;
22778;SDS011;11556;51.194;3.800;2023-04-25T02:11:37;19.95;;;3.20;;
22778;SDS011;11556;51.194;3.800;2023-04-25T02:14:02;18.90;;;3.70;;
22778;SDS011;11556;51.194;3.800;2023-04-25T02:16:28;14.40;;;3.65;;
22778;SDS011;11556;51.194;3.800;2023-04-25T02:18:55;15.63;;;3.95;;
22778;SDS011;11556;51.194;3.800;2023-04-25T02:21:21;17.88;;;5.18;;
22778;SDS011;11556;51.194;3.800;2023-04-25T02:23:47;16.20;;;5.05;;
22778;SDS011;11556;51.194;3.800;2023-04-25T02:26:14;21.25;;;6.10;;
22778;SDS011;11556;51.194;3.800;2023-04-25T02:28:40;19.17;;;7.05;;
22778;SDS011;11556;51.194;3.800;2023-04-25T02:31:05;22.95;;;6.38;;
22778;SDS011;11556;51.194;3.800;2023-04-25T02:33:31;16.67;;;5.18;;
22778;SDS011;11556;51.194;3.800;2023-04-25T02:35:56;22.02;;;5.28;;
22778;SDS011;11556;51.194;3.800;2023-04-25T02:38:22;23.50;;;4.07;;
22778;SDS011;11556;51.194;3.800;2023-04-25T02:40:48;13.25;;;3.60;;
22778;SDS011;11556;51.194;3.800;2023-04-25T02:43:13;14.27;;;3.83;;
22778;SDS011;11556;51.194;3.800;2023-04-25T02:45:39;16.42;;;3.70;;
22778;SDS011;11556;51.194;3.800;2023-04-25T02:48:05;16.98;;;4.00;;
22778;SDS011;11556;51.194;3.800;2023-04-25T02:50:30;14.77;;;3.92;;
22778;SDS011;11556;51.194;3.800;2023-04-25T02:52:56;11.52;;;3.35;;
22778;SDS011;11556;51.194;3.800;2023-04-25T02:55:22;17.33;;;3.95;;
22778;SDS011;11556;51.194;3.800;2023-04-25T02:57:47;15.98;;;4.10;;
22778;SDS011;11556;51.194;3.800;2023-04-25T03:00:13;17.55;;;3.75;;
22778;SDS011;11556;51.194;3.800;2023-04-25T03:02:39;15.20;;;4.13;;
22778;SDS011;11556;51.194;3.800;2023-04-25T03:05:05;11.35;;;3.65;;
22778;SDS011;11556;51.194;3.800;2023-04-25T03:07:31;15.63;;;3.97;;
22778;SDS011;11556;51.194;3.800;2023-04-25T03:09:56;14.55;;;3.55;;
22778;SDS011;11556;51.194;3.800;2023-04-25T03:12:22;14.40;;;3.20;;
22778;SDS011;11556;51.194;3.800;2023-04-25T03:14:48;12.70;;;3.00;;
22778;SDS011;11556;51.194;3.800;2023-04-25T03:17:13;15.75;;;3.80;;
22778;SDS011;11556;51.194;3.800;2023-04-25T03:19:39;12.50;;;4.32;;
22778;SDS011;11556;51.194;3.800;2023-04-25T03:22:04;14.35;;;4.10;;
22778;SDS011;11556;51.194;3.800;2023-04-25T03:24:30;17.63;;;4.38;;
22778;SDS011;11556;51.194;3.800;2023-04-25T03:26:56;18.30;;;4.20;;
22778;SDS011;11556;51.194;3.800;2023-04-25T03:29:21;17.83;;;5.13;;
22778;SDS011;11556;51.194;3.800;2023-04-25T03:31:50;20.63;;;5.50;;
22778;SDS011;11556;51.194;3.800;2023-04-25T03:34:16;17.42;;;5.50;;
22778;SDS011;11556;51.194;3.800;2023-04-25T03:36:41;14.35;;;4.40;;
22778;SDS011;11556;51.194;3.800;2023-04-25T03:39:07;15.85;;;2.97;;
22778;SDS011;11556;51.194;3.800;2023-04-25T03:41:33;12.88;;;3.00;;
22778;SDS011;11556;51.194;3.800;2023-04-25T03:43:59;15.38;;;3.30;;
22778;SDS011;11556;51.194;3.800;2023-04-25T03:46:24;12.68;;;3.22;;
22778;SDS011;11556;51.194;3.800;2023-04-25T03:48:50;14.38;;;3.65;;
22778;SDS011;11556;51.194;3.800;2023-04-25T03:51:15;14.23;;;3.60;;
22778;SDS011;11556;51.194;3.800;2023-04-25T03:53:41;16.20;;;3.53;;
22778;SDS011;11556;51.194;3.800;2023-04-25T03:56:07;10.57;;;3.45;;
22778;SDS011;11556;51.194;3.800;2023-04-25T03:58:32;15.65;;;4.40;;
22778;SDS011;11556;51.194;3.800;2023-04-25T04:00:58;13.25;;;4.05;;
22778;SDS011;11556;51.194;3.800;2023-04-25T04:03:24;12.05;;;3.22;;
22778;SDS011;11556;51.194;3.800;2023-04-25T04:05:49;11.05;;;3.00;;
22778;SDS011;11556;51.194;3.800;2023-04-25T04:08:15;13.15;;;3.38;;
22778;SDS011;11556;51.194;3.800;2023-04-25T04:10:41;12.95;;;3.53;;
22778;SDS011;11556;51.194;3.800;2023-04-25T04:13:07;14.48;;;3.58;;
22778;SDS011;11556;51.194;3.800;2023-04-25T04:15:32;13.55;;;3.90;;
22778;SDS011;11556;51.194;3.800;2023-04-25T04:17:59;9.45;;;3.20;;
22778;SDS011;11556;51.194;3.800;2023-04-25T04:20:28;12.02;;;3.30;;
22778;SDS011;11556;51.194;3.800;2023-04-25T04:22:55;16.52;;;3.80;;
22778;SDS011;11556;51.194;3.800;2023-04-25T04:25:21;13.35;;;3.13;;
22778;SDS011;11556;51.194;3.800;2023-04-25T04:27:47;9.82;;;3.55;;
22778;SDS011;11556;51.194;3.800;2023-04-25T04:30:12;13.52;;;4.20;;
22778;SDS011;11556;51.194;3.800;2023-04-25T04:32:38;12.82;;;3.75;;
22778;SDS011;11556;51.194;3.800;2023-04-25T04:35:04;12.52;;;3.33;;
22778;SDS011;11556;51.194;3.800;2023-04-25T04:37:31;13.85;;;4.47;;
22778;SDS011;11556;51.194;3.800;2023-04-25T04:39:57;15.02;;;4.20;;
22778;SDS011;11556;51.194;3.800;2023-04-25T04:42:24;13.05;;;3.63;;
22778;SDS011;11556;51.194;3.800;2023-04-25T04:44:50;9.85;;;3.60;;
22778;SDS011;11556;51.194;3.800;2023-04-25T04:47:17;14.40;;;3.85;;
22778;SDS011;11556;51.194;3.800;2023-04-25T04:49:42;16.30;;;3.72;;
22778;SDS011;11556;51.194;3.800;2023-04-25T04:52:09;10.65;;;4.38;;
22778;SDS011;11556;51.194;3.800;2023-04-25T04:54:35;14.50;;;4.55;;
22778;SDS011;11556;51.194;3.800;2023-04-25T04:57:00;16.80;;;3.90;;
22778;SDS011;11556;51.194;3.800;2023-04-25T04:59:26;12.63;;;4.05;;
22778;SDS011;11556;51.194;3.800;2023-04-25T05:01:52;12.45;;;4.55;;
22778;SDS011;11556;51.194;3.800;2023-04-25T05:04:18;14.85;;;3.95;;
22778;SDS011;11556;51.194;3.800;2023-04-25T05:06:43;19.45;;;4.32;;
22778;SDS011;11556;51.194;3.800;2023-04-25T05:09:09;11.95;;;4.20;;
22778;SDS011;11556;51.194;3.800;2023-04-25T05:11:35;15.13;;;4.45;;
22778;SDS011;11556;51.194;3.800;2023-04-25T05:14:01;18.95;;;4.22;;
22778;SDS011;11556;51.194;3.800;2023-04-25T05:16:26;11.75;;;4.10;;
22778;SDS011;11556;51.194;3.800;2023-04-25T05:18:52;12.90;;;3.67;;
22778;SDS011;11556;51.194;3.800;2023-04-25T05:21:17;15.20;;;4.55;;
22778;SDS011;11556;51.194;3.800;2023-04-25T05:23:43;13.18;;;4.18;;
22778;SDS011;11556;51.194;3.800;2023-04-25T05:26:09;16.90;;;4.63;;
22778;SDS011;11556;51.194;3.800;2023-04-25T05:28:38;17.77;;;4.40;;
22778;SDS011;11556;51.194;3.800;2023-04-25T05:31:06;13.77;;;4.13;;
22778;SDS011;11556;51.194;3.800;2023-04-25T05:33:31;14.05;;;4.05;;
22778;SDS011;11556;51.194;3.800;2023-04-25T05:35:57;17.27;;;4.90;;
22778;SDS011;11556;51.194;3.800;2023-04-25T05:38:23;13.75;;;5.15;;
22778;SDS011;11556;51.194;3.800;2023-04-25T05:40:48;15.35;;;4.88;;
22778;SDS011;11556;51.194;3.800;2023-04-25T05:43:14;13.95;;;4.30;;
22778;SDS011;11556;51.194;3.800;2023-04-25T05:45:40;16.83;;;5.07;;
22778;SDS011;11556;51.194;3.800;2023-04-25T05:48:06;17.60;;;4.40;;
22778;SDS011;11556;51.194;3.800;2023-04-25T05:50:31;15.43;;;4.55;;
22778;SDS011;11556;51.194;3.800;2023-04-25T05:52:57;11.85;;;4.35;;
22778;SDS011;11556;51.194;3.800;2023-04-25T05:55:23;12.40;;;4.40;;
22778;SDS011;11556;51.194;3.800;2023-04-25T05:57:48;16.73;;;4.32;;
22778;SDS011;11556;51.194;3.800;2023-04-25T06:00:14;12.63;;;4.15;;
22778;SDS011;11556;51.194;3.800;2023-04-25T06:02:41;11.20;;;2.97;;
22778;SDS011;11556;51.194;3.800;2023-04-25T06:05:07;10.43;;;2.70;;
22778;SDS011;11556;51.194;3.800;2023-04-25T06:07:33;9.35;;;2.70;;
22778;SDS011;11556;51.194;3.800;2023-04-25T06:09:59;12.07;;;2.50;;
22778;SDS011;11556;51.194;3.800;2023-04-25T06:12:25;13.15;;;2.55;;
22778;SDS011;11556;51.194;3.800;2023-04-25T06:14:51;12.13;;;3.03;;
22778;SDS011;11556;51.194;3.800;2023-04-25T06:17:17;12.60;;;2.88;;
22778;SDS011;11556;51.194;3.800;2023-04-25T06:19:43;8.38;;;2.33;;
22778;SDS011;11556;51.194;3.800;2023-04-25T06:22:09;12.85;;;2.95;;
22778;SDS011;11556;51.194;3.800;2023-04-25T06:24:35;10.80;;;2.92;;
22778;SDS011;11556;51.194;3.800;2023-04-25T06:27:01;12.10;;;3.10;;
22778;SDS011;11556;51.194;3.800;2023-04-25T06:29:26;11.77;;;2.78;;
22778;SDS011;11556;51.194;3.800;2023-04-25T06:31:52;11.15;;;2.35;;
22778;SDS011;11556;51.194;3.800;2023-04-25T06:34:18;9.07;;;1.95;;
22778;SDS011;11556;51.194;3.800;2023-04-25T06:36:43;8.30;;;2.22;;
22778;SDS011;11556;51.194;3.800;2023-04-25T06:39:09;10.05;;;2.13;;
22778;SDS011;11556;51.194;3.800;2023-04-25T06:41:36;9.52;;;1.80;;
22778;SDS011;11556;51.194;3.800;2023-04-25T06:44:02;11.10;;;2.08;;
22778;SDS011;11556;51.194;3.800;2023-04-25T06:46:28;10.88;;;1.80;;
22778;SDS011;11556;51.194;3.800;2023-04-25T06:48:53;7.68;;;1.80;;
22778;SDS011;11556;51.194;3.800;2023-04-25T06:51:20;6.00;;;1.85;;
22778;SDS011;11556;51.194;3.800;2023-04-25T06:53:46;13.45;;;2.17;;
22778;SDS011;11556;51.194;3.800;2023-04-25T06:56:11;8.18;;;1.73;;
22778;SDS011;11556;51.194;3.800;2023-04-25T06:58:38;9.90;;;2.35;;
22778;SDS011;11556;51.194;3.800;2023-04-25T07:01:03;13.60;;;1.83;;
22778;SDS011;11556;51.194;3.800;2023-04-25T07:03:29;9.90;;;1.65;;
22778;SDS011;11556;51.194;3.800;2023-04-25T07:05:55;8.55;;;1.50;;
22778;SDS011;11556;51.194;3.800;2023-04-25T07:08:21;7.78;;;1.60;;
22778;SDS011;11556;51.194;3.800;2023-04-25T07:10:46;6.10;;;1.50;;
22778;SDS011;11556;51.194;3.800;2023-04-25T07:13:12;6.72;;;1.45;;
22778;SDS011;11556;51.194;3.800;2023-04-25T07:15:38;9.60;;;1.90;;
22778;SDS011;11556;51.194;3.800;2023-04-25T07:18:03;17.70;;;1.98;;
22778;SDS011;11556;51.194;3.800;2023-04-25T07:20:29;12.35;;;1.77;;
22778;SDS011;11556;51.194;3.800;2023-04-25T07:22:56;10.70;;;1.27;;
22778;SDS011;11556;51.194;3.800;2023-04-25T07:25:22;5.38;;;1.08;;
22778;SDS011;11556;51.194;3.800;2023-04-25T07:27:47;5.18;;;1.08;;
22778;SDS011;11556;51.194;3.800;2023-04-25T07:30:13;5.22;;;1.30;;
22778;SDS011;11556;51.194;3.800;2023-04-25T07:32:39;5.75;;;1.42;;
22778;SDS011;11556;51.194;3.800;2023-04-25T07:35:05;7.65;;;1.45;;
22778;SDS011;11556;51.194;3.800;2023-04-25T07:37:32;4.82;;;0.90;;
22778;SDS011;11556;51.194;3.800;2023-04-25T07:39:58;5.50;;;1.00;;
22778;SDS011;11556;51.194;3.800;2023-04-25T07:42:24;3.25;;;0.80;;
22778;SDS011;11556;51.194;3.800;2023-04-25T07:44:49;2.28;;;0.90;;
22778;SDS011;11556;51.194;3.800;2023-04-25T07:47:16;2.10;;;0.75;;
22778;SDS011;11556;51.194;3.800;2023-04-25T07:49:44;1.27;;;0.60;;
22778;SDS011;11556;51.194;3.800;2023-04-25T07:52:10;4.50;;;0.90;;
22778;SDS011;11556;51.194;3.800;2023-04-25T07:54:37;4.15;;;0.80;;
22778;SDS011;11556;51.194;3.800;2023-04-25T07:57:03;3.55;;;0.88;;
22778;SDS011;11556;51.194;3.800;2023-04-25T07:59:29;3.33;;;0.98;;
22778;SDS011;11556;51.194;3.800;2023-04-25T08:01:54;4.20;;;0.88;;
22778;SDS011;11556;51.194;3.800;2023-04-25T08:04:22;2.80;;;1.02;;
22778;SDS011;11556;51.194;3.800;2023-04-25T08:06:49;5.38;;;0.77;;
22778;SDS011;11556;51.194;3.800;2023-04-25T08:09:15;1.98;;;0.73;;
22778;SDS011;11556;51.194;3.800;2023-04-25T08:11:41;4.85;;;0.82;;
22778;SDS011;11556;51.194;3.800;2023-04-25T08:14:07;4.88;;;1.05;;
22778;SDS011;11556;51.194;3.800;2023-04-25T08:16:33;2.80;;;0.60;;
22778;SDS011;11556;51.194;3.800;2023-04-25T08:18:59;2.97;;;0.90;;
22778;SDS011;11556;51.194;3.800;2023-04-25T08:21:25;4.80;;;1.00;;
22778;SDS011;11556;51.194;3.800;2023-04-25T08:23:52;3.63;;;0.90;;
22778;SDS011;11556;51.194;3.800;2023-04-25T08:26:18;4.93;;;0.80;;
22778;SDS011;11556;51.194;3.800;2023-04-25T08:28:43;5.43;;;1.10;;
22778;SDS011;11556;51.194;3.800;2023-04-25T08:31:09;3.67;;;1.08;;
22778;SDS011;11556;51.194;3.800;2023-04-25T08:33:35;3.15;;;0.80;;
22778;SDS011;11556;51.194;3.800;2023-04-25T08:36:01;5.05;;;1.08;;
22778;SDS011;11556;51.194;3.800;2023-04-25T08:38:26;3.40;;;0.80;;
22778;SDS011;11556;51.194;3.800;2023-04-25T08:40:52;4.00;;;0.90;;
22778;SDS011;11556;51.194;3.800;2023-04-25T08:43:20;6.10;;;0.95;;
22778;SDS011;11556;51.194;3.800;2023-04-25T08:45:48;5.95;;;0.90;;
22778;SDS011;11556;51.194;3.800;2023-04-25T08:48:15;4.63;;;0.88;;
22778;SDS011;11556;51.194;3.800;2023-04-25T08:50:52;4.00;;;0.88;;
22778;SDS011;11556;51.194;3.800;2023-04-25T08:53:21;4.97;;;0.98;;
22778;SDS011;11556;51.194;3.800;2023-04-25T08:55:50;4.15;;;0.95;;
22778;SDS011;11556;51.194;3.800;2023-04-25T08:58:17;5.63;;;1.13;;
22778;SDS011;11556;51.194;3.800;2023-04-25T09:00:45;7.32;;;1.00;;
22778;SDS011;11556;51.194;3.800;2023-04-25T09:03:12;9.35;;;1.27;;
22778;SDS011;11556;51.194;3.800;2023-04-25T09:05:38;5.32;;;0.93;;
22778;SDS011;11556;51.194;3.800;2023-04-25T09:08:05;11.05;;;1.27;;
22778;SDS011;11556;51.194;3.800;2023-04-25T09:10:31;4.60;;;1.08;;
22778;SDS011;11556;51.194;3.800;2023-04-25T09:13:11;7.70;;;1.30;;
22778;SDS011;11556;51.194;3.800;2023-04-25T09:18:27;9.65;;;1.38;;
22778;SDS011;11556;51.194;3.800;2023-04-25T09:20:55;7.55;;;1.38;;
22778;SDS011;11556;51.194;3.800;2023-04-25T09:23:22;7.38;;;1.25;;
22778;SDS011;11556;51.194;3.800;2023-04-25T09:25:49;7.35;;;1.40;;
22778;SDS011;11556;51.194;3.800;2023-04-25T09:28:25;8.50;;;1.17;;
22778;SDS011;11556;51.194;3.800;2023-04-25T09:30:55;7.15;;;1.60;;
22778;SDS011;11556;51.194;3.800;2023-04-25T09:33:31;11.05;;;1.40;;
22778;SDS011;11556;51.194;3.800;2023-04-25T09:36:16;7.40;;;1.60;;
22778;SDS011;11556;51.194;3.800;2023-04-25T09:38:42;5.70;;;1.35;;
22778;SDS011;11556;51.194;3.800;2023-04-25T09:41:09;8.55;;;1.42;;
22778;SDS011;11556;51.194;3.800;2023-04-25T09:43:36;7.43;;;1.20;;
22778;SDS011;11556;51.194;3.800;2023-04-25T09:46:02;3.10;;;1.20;;
22778;SDS011;11556;51.194;3.800;2023-04-25T09:48:32;5.22;;;1.35;;
22778;SDS011;11556;51.194;3.800;2023-04-25T09:55:57;6.28;;;1.10;;
22778;SDS011;11556;51.194;3.800;2023-04-25T09:58:25;5.18;;;1.10;;
22778;SDS011;11556;51.194;3.800;2023-04-25T10:00:54;5.97;;;1.00;;
22778;SDS011;11556;51.194;3.800;2023-04-25T10:03:24;5.35;;;1.08;;
22778;SDS011;11556;51.194;3.800;2023-04-25T10:05:51;5.63;;;1.23;;
22778;SDS011;11556;51.194;3.800;2023-04-25T10:08:18;4.38;;;1.17;;
22778;SDS011;11556;51.194;3.800;2023-04-25T10:10:46;3.00;;;0.80;;
22778;SDS011;11556;51.194;3.800;2023-04-25T10:13:13;5.13;;;0.95;;
22778;SDS011;11556;51.194;3.800;2023-04-25T10:15:40;3.08;;;1.05;;
22778;SDS011;11556;51.194;3.800;2023-04-25T10:18:07;5.45;;;1.30;;
22778;SDS011;11556;51.194;3.800;2023-04-25T10:20:33;3.03;;;0.70;;
22778;SDS011;11556;51.194;3.800;2023-04-25T10:23:03;3.30;;;1.13;;
22778;SDS011;11556;51.194;3.800;2023-04-25T10:25:38;4.53;;;0.90;;
22778;SDS011;11556;51.194;3.800;2023-04-25T10:28:05;8.20;;;1.40;;
22778;SDS011;11556;51.194;3.800;2023-04-25T10:30:31;7.50;;;0.73;;
22778;SDS011;11556;51.194;3.800;2023-04-25T10:32:56;5.38;;;0.85;;
22778;SDS011;11556;51.194;3.800;2023-04-25T10:35:28;3.65;;;0.93;;
22778;SDS011;11556;51.194;3.800;2023-04-25T10:37:59;4.75;;;0.80;;
22778;SDS011;11556;51.194;3.800;2023-04-25T10:40:35;4.80;;;0.82;;
22778;SDS011;11556;51.194;3.800;2023-04-25T10:48:52;3.13;;;0.77;;
22778;SDS011;11556;51.194;3.800;2023-04-25T10:53:56;3.17;;;0.50;;
22778;SDS011;11556;51.194;3.800;2023-04-25T10:56:22;3.80;;;0.55;;
22778;SDS011;11556;51.194;3.800;2023-04-25T10:59:32;1.90;;;0.60;;
22778;SDS011;11556;51.194;3.800;2023-04-25T11:01:53;2.38;;;0.70;;
22778;SDS011;11556;51.194;3.800;2023-04-25T11:09:30;5.72;;;0.80;;
22778;SDS011;11556;51.194;3.800;2023-04-25T11:11:58;1.40;;;0.60;;
22778;SDS011;11556;51.194;3.800;2023-04-25T11:14:25;6.85;;;0.70;;
22778;SDS011;11556;51.194;3.800;2023-04-25T11:16:55;4.93;;;0.80;;
22778;SDS011;11556;51.194;3.800;2023-04-25T11:19:24;2.38;;;0.60;;
22778;SDS011;11556;51.194;3.800;2023-04-25T11:21:54;3.88;;;0.63;;
22778;SDS011;11556;51.194;3.800;2023-04-25T11:24:31;3.58;;;0.70;;
22778;SDS011;11556;51.194;3.800;2023-04-25T11:27:04;4.25;;;0.93;;
22778;SDS011;11556;51.194;3.800;2023-04-25T11:29:33;3.47;;;0.70;;
22778;SDS011;11556;51.194;3.800;2023-04-25T11:32:00;5.03;;;0.75;;
22778;SDS011;11556;51.194;3.800;2023-04-25T11:34:27;4.45;;;0.75;;
22778;SDS011;11556;51.194;3.800;2023-04-25T11:36:55;5.13;;;0.82;;
22778;SDS011;11556;51.194;3.800;2023-04-25T11:39:23;4.93;;;0.98;;
22778;SDS011;11556;51.194;3.800;2023-04-25T11:41:49;6.45;;;0.93;;
22778;SDS011;11556;51.194;3.800;2023-04-25T11:44:16;4.30;;;0.90;;
22778;SDS011;11556;51.194;3.800;2023-04-25T11:46:43;7.38;;;0.65;;
22778;SDS011;11556;51.194;3.800;2023-04-25T11:49:09;2.35;;;0.82;;
22778;SDS011;11556;51.194;3.800;2023-04-25T11:51:41;2.28;;;0.80;;
22778;SDS011;11556;51.194;3.800;2023-04-25T11:54:12;1.98;;;0.60;;
22778;SDS011;11556;51.194;3.800;2023-04-25T11:56:44;3.33;;;0.70;;
22778;SDS011;11556;51.194;3.800;2023-04-25T11:59:12;5.03;;;1.60;;
22778;SDS011;11556;51.194;3.800;2023-04-25T12:01:39;3.00;;;0.90;;
22778;SDS011;11556;51.194;3.800;2023-04-25T12:04:10;4.45;;;0.52;;
22778;SDS011;11556;51.194;3.800;2023-04-25T12:06:37;3.20;;;0.70;;
22778;SDS011;11556;51.194;3.800;2023-04-25T12:09:10;6.75;;;0.55;;
22778;SDS011;11556;51.194;3.800;2023-04-25T12:14:22;4.63;;;0.65;;
22778;SDS011;11556;51.194;3.800;2023-04-25T12:16:49;3.85;;;0.50;;
22778;SDS011;11556;51.194;3.800;2023-04-25T12:19:19;5.22;;;0.80;;
22778;SDS011;11556;51.194;3.800;2023-04-25T12:21:45;2.53;;;0.60;;
22778;SDS011;11556;51.194;3.800;2023-04-25T12:24:15;2.63;;;0.57;;
22778;SDS011;11556;51.194;3.800;2023-04-25T12:27:16;5.13;;;0.82;;
22778;SDS011;11556;51.194;3.800;2023-04-25T12:29:35;3.10;;;0.57;;
22778;SDS011;11556;51.194;3.800;2023-04-25T12:32:00;3.28;;;0.60;;
22778;SDS011;11556;51.194;3.800;2023-04-25T12:34:26;3.33;;;0.80;;
22778;SDS011;11556;51.194;3.800;2023-04-25T12:36:53;5.35;;;0.70;;
22778;SDS011;11556;51.194;3.800;2023-04-25T12:39:22;2.40;;;0.50;;
22778;SDS011;11556;51.194;3.800;2023-04-25T12:41:50;5.35;;;0.88;;
22778;SDS011;11556;51.194;3.800;2023-04-25T12:44:18;2.33;;;0.77;;
22778;SDS011;11556;51.194;3.800;2023-04-25T12:46:45;5.30;;;0.88;;
22778;SDS011;11556;51.194;3.800;2023-04-25T12:49:10;6.53;;;0.80;;
22778;SDS011;11556;51.194;3.800;2023-04-25T12:51:36;8.95;;;1.35;;
22778;SDS011;11556;51.194;3.800;2023-04-25T12:54:04;2.58;;;0.77;;
22778;SDS011;11556;51.194;3.800;2023-04-25T12:56:32;5.40;;;1.05;;
22778;SDS011;11556;51.194;3.800;2023-04-25T12:58:57;4.47;;;0.68;;
22778;SDS011;11556;51.194;3.800;2023-04-25T13:01:25;4.85;;;0.60;;
22778;SDS011;11556;51.194;3.800;2023-04-25T13:03:51;5.65;;;1.08;;
22778;SDS011;11556;51.194;3.800;2023-04-25T13:06:18;1.52;;;0.75;;
22778;SDS011;11556;51.194;3.800;2023-04-25T13:08:44;4.97;;;0.95;;
22778;SDS011;11556;51.194;3.800;2023-04-25T13:11:10;9.05;;;1.08;;
22778;SDS011;11556;51.194;3.800;2023-04-25T13:13:36;3.60;;;1.00;;
22778;SDS011;11556;51.194;3.800;2023-04-25T13:16:04;5.65;;;1.00;;
22778;SDS011;11556;51.194;3.800;2023-04-25T13:18:30;10.48;;;1.02;;
22778;SDS011;11556;51.194;3.800;2023-04-25T13:20:57;5.43;;;1.00;;
22778;SDS011;11556;51.194;3.800;2023-04-25T13:23:24;3.45;;;0.90;;
22778;SDS011;11556;51.194;3.800;2023-04-25T13:25:51;3.33;;;0.65;;
22778;SDS011;11556;51.194;3.800;2023-04-25T13:28:17;9.25;;;1.02;;
22778;SDS011;11556;51.194;3.800;2023-04-25T13:30:43;2.15;;;0.60;;
22778;SDS011;11556;51.194;3.800;2023-04-25T13:33:09;5.07;;;0.70;;
22778;SDS011;11556;51.194;3.800;2023-04-25T13:35:35;3.17;;;0.98;;
22778;SDS011;11556;51.194;3.800;2023-04-25T13:38:02;7.15;;;0.90;;
22778;SDS011;11556;51.194;3.800;2023-04-25T13:40:28;8.13;;;0.77;;
22778;SDS011;11556;51.194;3.800;2023-04-25T13:42:54;3.55;;;0.73;;
22778;SDS011;11556;51.194;3.800;2023-04-25T13:45:20;5.03;;;0.90;;
22778;SDS011;11556;51.194;3.800;2023-04-25T13:47:46;1.75;;;0.50;;
22778;SDS011;11556;51.194;3.800;2023-04-25T13:50:12;1.83;;;0.50;;
22778;SDS011;11556;51.194;3.800;2023-04-25T13:52:38;4.20;;;0.75;;
22778;SDS011;11556;51.194;3.800;2023-04-25T13:55:04;5.53;;;0.80;;
22778;SDS011;11556;51.194;3.800;2023-04-25T13:57:32;3.03;;;0.68;;
22778;SDS011;11556;51.194;3.800;2023-04-25T13:59:58;2.42;;;0.70;;
22778;SDS011;11556;51.194;3.800;2023-04-25T14:02:24;3.45;;;0.65;;
22778;SDS011;11556;51.194;3.800;2023-04-25T14:04:51;2.92;;;0.63;;
22778;SDS011;11556;51.194;3.800;2023-04-25T14:07:16;4.20;;;0.68;;
22778;SDS011;11556;51.194;3.800;2023-04-25T14:09:46;2.58;;;0.57;;
22778;SDS011;11556;51.194;3.800;2023-04-25T14:12:11;1.45;;;0.50;;
22778;SDS011;11556;51.194;3.800;2023-04-25T14:14:37;3.00;;;0.85;;
22778;SDS011;11556;51.194;3.800;2023-04-25T14:17:03;3.70;;;0.73;;
22778;SDS011;11556;51.194;3.800;2023-04-25T14:19:29;2.50;;;0.73;;
22778;SDS011;11556;51.194;3.800;2023-04-25T14:21:55;4.72;;;0.55;;
22778;SDS011;11556;51.194;3.800;2023-04-25T14:24:20;3.90;;;0.88;;
22778;SDS011;11556;51.194;3.800;2023-04-25T14:26:46;3.17;;;0.82;;
22778;SDS011;11556;51.194;3.800;2023-04-25T14:29:12;3.78;;;0.70;;
22778;SDS011;11556;51.194;3.800;2023-04-25T14:31:38;1.77;;;0.55;;
22778;SDS011;11556;51.194;3.800;2023-04-25T14:34:05;3.17;;;0.65;;
22778;SDS011;11556;51.194;3.800;2023-04-25T14:36:31;5.55;;;0.60;;
22778;SDS011;11556;51.194;3.800;2023-04-25T14:38:58;3.63;;;0.80;;
22778;SDS011;11556;51.194;3.800;2023-04-25T14:41:25;3.28;;;0.80;;
22778;SDS011;11556;51.194;3.800;2023-04-25T14:43:51;4.95;;;0.80;;
22778;SDS011;11556;51.194;3.800;2023-04-25T14:46:18;4.35;;;1.00;;
22778;SDS011;11556;51.194;3.800;2023-04-25T14:48:44;5.75;;;1.20;;
22778;SDS011;11556;51.194;3.800;2023-04-25T14:51:10;7.60;;;1.30;;
22778;SDS011;11556;51.194;3.800;2023-04-25T14:53:36;5.53;;;1.20;;
22778;SDS011;11556;51.194;3.800;2023-04-25T14:56:02;3.47;;;0.90;;
22778;SDS011;11556;51.194;3.800;2023-04-25T14:58:28;4.90;;;1.23;;
22778;SDS011;11556;51.194;3.800;2023-04-25T15:00:54;7.28;;;1.33;;
22778;SDS011;11556;51.194;3.800;2023-04-25T15:03:20;7.35;;;1.40;;